Time;durP1;ratioP1;P1;durP2;ratioP2;P2;SDS_P1;SDS_P2;PMS_P1;PMS_P2;Temp;Humidity;BMP_temperature;BMP_pressure;BME280_temperature;BME280_humidity;BME280_pressure;Samples;Min_cycle;Max_cycle;Signal;HPM_P1;HPM_P2
2021/01/13 00:02:09;;;;;;;14.88;7.53;;;0.20;99.90;;;;;;5074257;28;20067;-70
2021/01/13 00:04:35;;;;;;;13.73;7.70;;;0.10;99.90;;;;;;5074048;28;20384;-70
2021/01/13 00:07:03;;;;;;;19.08;9.07;;;0.10;99.90;;;;;;5056859;28;20390;-69
2021/01/13 00:09:29;;;;;;;17.83;7.45;;;0.00;99.90;;;;;;5079562;28;20028;-69
2021/01/13 00:11:57;;;;;;;15.60;7.65;;;0.00;99.90;;;;;;5079908;28;20060;-68
2021/01/13 00:14:26;;;;;;;14.45;8.07;;;0.00;99.90;;;;;;5074620;28;20036;-71
2021/01/13 00:16:53;;;;;;;11.45;7.10;;;0.00;99.90;;;;;;5074167;28;20474;-70
2021/01/13 00:19:20;;;;;;;14.38;7.30;;;0.00;99.90;;;;;;5074029;28;20036;-69
2021/01/13 00:21:53;;;;;;;18.55;7.88;;;-0.10;99.90;;;;;;5073958;28;20027;-69
2021/01/13 00:24:20;;;;;;;16.80;7.28;;;-0.20;99.90;;;;;;5073390;28;20020;-72
2021/01/13 00:26:46;;;;;;;15.75;6.68;;;-0.20;99.90;;;;;;5073687;28;20103;-70
2021/01/13 00:29:13;;;;;;;28.80;8.52;;;-0.20;99.90;;;;;;5073813;28;20035;-69
2021/01/13 00:31:39;;;;;;;12.45;7.80;;;-0.20;99.90;;;;;;5073573;28;20036;-70
2021/01/13 00:34:08;;;;;;;11.45;7.00;;;-0.30;99.90;;;;;;5072947;28;20032;-69
2021/01/13 00:36:34;;;;;;;9.43;6.90;;;-0.30;99.90;;;;;;5073428;28;20564;-69
2021/01/13 00:39:00;;;;;;;14.20;7.68;;;-0.20;99.90;;;;;;5073395;28;20028;-70
2021/01/13 00:41:26;;;;;;;21.20;7.60;;;-0.30;99.90;;;;;;5073552;28;20020;-68
2021/01/13 00:43:53;;;;;;;21.17;8.00;;;-0.40;99.90;;;;;;5072707;28;20031;-69
2021/01/13 00:46:19;;;;;;;11.05;7.70;;;-0.40;99.90;;;;;;5055427;28;20051;-69
2021/01/13 00:48:45;;;;;;;16.75;8.88;;;-0.40;99.90;;;;;;5073429;28;20083;-69
2021/01/13 00:51:11;;;;;;;13.63;7.80;;;-0.50;99.90;;;;;;5073789;28;20040;-73
2021/01/13 00:53:37;;;;;;;17.15;7.55;;;-0.50;99.90;;;;;;5072649;28;20059;-68
2021/01/13 00:56:03;;;;;;;15.45;7.95;;;-0.50;99.90;;;;;;5072981;28;20033;-69
2021/01/13 00:58:29;;;;;;;16.58;7.18;;;-0.50;99.90;;;;;;5073154;28;20020;-69
2021/01/13 01:00:55;;;;;;;14.77;7.32;;;-0.40;99.90;;;;;;5073296;28;20398;-70
2021/01/13 01:03:20;;;;;;;18.83;7.97;;;-0.40;99.90;;;;;;5072588;28;20020;-72
2021/01/13 01:05:48;;;;;;;16.30;6.43;;;-0.40;99.90;;;;;;5073020;28;20428;-69
2021/01/13 01:08:14;;;;;;;15.88;8.02;;;-0.50;99.90;;;;;;5072905;28;20040;-70
2021/01/13 01:10:40;;;;;;;15.77;7.50;;;-0.50;99.90;;;;;;5072290;28;20458;-70
2021/01/13 01:13:08;;;;;;;14.20;8.10;;;-0.50;99.90;;;;;;5072579;28;20043;-69
2021/01/13 01:15:35;;;;;;;15.10;8.32;;;-0.50;99.90;;;;;;5073092;28;20067;-69
2021/01/13 01:18:01;;;;;;;17.15;8.60;;;-0.40;99.90;;;;;;5072842;28;20023;-70
2021/01/13 01:20:26;;;;;;;22.98;9.85;;;-0.40;99.90;;;;;;5072683;28;20029;-71
2021/01/13 01:22:57;;;;;;;20.40;9.18;;;-0.20;99.90;;;;;;5071739;28;20024;-69
2021/01/13 01:25:27;;;;;;;20.70;9.00;;;-0.20;99.90;;;;;;5072961;28;20021;-68
2021/01/13 01:27:55;;;;;;;22.60;9.40;;;-0.10;99.90;;;;;;5072680;28;20024;-71
2021/01/13 01:30:22;;;;;;;18.83;9.98;;;-0.10;99.90;;;;;;5072597;28;20024;-70
2021/01/13 01:32:48;;;;;;;22.95;9.88;;;0.00;99.90;;;;;;5071988;28;20021;-70
2021/01/13 01:35:14;;;;;;;29.15;10.88;;;0.10;99.90;;;;;;5072796;28;20025;-70
2021/01/13 01:37:41;;;;;;;18.80;9.40;;;0.10;99.90;;;;;;5054736;28;20091;-71
2021/01/13 01:40:12;;;;;;;31.55;10.98;;;0.10;99.90;;;;;;5072489;28;20028;-69
2021/01/13 01:42:53;;;;;;;24.35;10.38;;;0.10;99.90;;;;;;5072132;28;20537;-69
2021/01/13 01:45:25;;;;;;;21.55;10.50;;;0.20;99.90;;;;;;5072296;28;20044;-71
2021/01/13 01:48:11;;;;;;;;;;;0.30;99.90;;;;;;5072940;28;20066;-70
2021/01/13 01:50:38;;;;;;;22.67;10.00;;;0.30;99.90;;;;;;5061336;28;20382;-71
2021/01/13 01:53:13;;;;;;;21.73;10.85;;;0.30;99.90;;;;;;5070202;28;20020;-71
2021/01/13 01:56:08;;;;;;;22.85;11.23;;;0.40;99.90;;;;;;5072529;28;20070;-70
2021/01/13 01:58:34;;;;;;;25.50;11.70;;;0.40;99.90;;;;;;5045892;28;20032;-71
2021/01/13 02:01:04;;;;;;;25.33;11.07;;;0.50;99.90;;;;;;5070539;28;20048;-71
2021/01/13 02:03:43;;;;;;;24.85;10.82;;;0.50;99.90;;;;;;5072118;28;20029;-69
2021/01/13 02:06:13;;;;;;;24.50;11.70;;;0.60;99.90;;;;;;5071883;28;20027;-69
2021/01/13 02:08:39;;;;;;;25.17;11.68;;;0.70;99.90;;;;;;5071673;28;20032;-70
2021/01/13 02:11:15;;;;;;;23.15;11.40;;;0.70;99.90;;;;;;5072295;28;20081;-70
2021/01/13 02:13:43;;;;;;;26.55;11.93;;;0.70;99.90;;;;;;5072048;28;20033;-68
2021/01/13 02:16:12;;;;;;;22.90;11.00;;;0.70;99.90;;;;;;5072622;28;20101;-69
2021/01/13 02:18:41;;;;;;;26.38;11.68;;;0.70;99.90;;;;;;5073620;28;20021;-72
2021/01/13 02:21:14;;;;;;;31.95;13.23;;;0.70;99.90;;;;;;5072855;28;20020;-70
2021/01/13 02:23:47;;;;;;;28.13;12.15;;;0.70;99.90;;;;;;5072426;28;20020;-70
2021/01/13 02:26:34;;;;;;;27.77;11.40;;;0.70;99.90;;;;;;5072504;28;20016;-69
2021/01/13 02:29:05;;;;;;;19.42;11.07;;;0.70;99.90;;;;;;5072110;28;20037;-70
2021/01/13 02:31:43;;;;;;;21.25;11.13;;;0.70;99.90;;;;;;5055577;28;20075;-70
2021/01/13 02:34:23;;;;;;;23.13;11.75;;;0.70;99.90;;;;;;5072512;28;20033;-70
2021/01/13 02:37:20;;;;;;;19.23;11.55;;;0.70;99.90;;;;;;5083203;28;20056;-71
2021/01/13 02:39:46;;;;;;;22.42;11.30;;;0.70;99.90;;;;;;5087404;28;20070;-71
2021/01/13 02:42:22;;;;;;;21.00;11.68;;;0.70;99.90;;;;;;5088739;28;20418;-71
2021/01/13 02:45:09;;;;;;;27.13;13.55;;;0.70;99.90;;;;;;5087279;28;20023;-70
2021/01/13 02:47:57;;;;;;;18.42;11.70;;;0.80;99.90;;;;;;5092634;28;20035;-71
2021/01/13 02:50:28;;;;;;;27.25;12.85;;;0.80;99.90;;;;;;5075392;28;20025;-70
2021/01/13 02:53:09;;;;;;;27.20;12.98;;;0.80;99.90;;;;;;5083586;28;20024;-70
2021/01/13 02:55:47;;;;;;;26.00;13.32;;;0.80;99.90;;;;;;5083897;28;20039;-70
2021/01/13 02:58:24;;;;;;;27.63;12.00;;;0.90;99.90;;;;;;5090079;28;20029;-71
2021/01/13 03:00:49;;;;;;;20.35;12.38;;;0.80;99.90;;;;;;5088915;28;20032;-71
2021/01/13 03:03:17;;;;;;;22.77;12.20;;;0.80;99.90;;;;;;5086531;28;20095;-68
2021/01/13 03:05:45;;;;;;;24.67;12.48;;;0.80;99.90;;;;;;5089016;28;20110;-71
2021/01/13 03:08:12;;;;;;;23.83;13.23;;;0.90;99.90;;;;;;5087703;28;20039;-69
2021/01/13 03:10:39;;;;;;;20.60;12.43;;;0.80;99.90;;;;;;5080259;28;20402;-69
2021/01/13 03:13:10;;;;;;;19.58;11.32;;;0.90;99.90;;;;;;5086649;28;20032;-70
2021/01/13 03:15:37;;;;;;;26.25;12.35;;;0.90;99.90;;;;;;5087997;28;20074;-72
2021/01/13 03:18:19;;;;;;;21.80;11.20;;;0.90;99.90;;;;;;5089539;28;20072;-71
2021/01/13 03:21:08;;;;;;;22.15;12.18;;;0.90;99.90;;;;;;5088831;28;20036;-71
2021/01/13 03:23:57;;;;;;;19.02;11.05;;;0.80;99.90;;;;;;5087144;28;20020;-70
2021/01/13 03:26:33;;;;;;;20.33;10.15;;;0.80;99.90;;;;;;5081393;28;20016;-72
2021/01/13 03:29:01;;;;;;;17.77;10.57;;;0.70;99.90;;;;;;5080080;28;20054;-70
2021/01/13 03:31:31;;;;;;;18.77;10.15;;;0.70;99.90;;;;;;5078039;28;20071;-72
2021/01/13 03:34:12;;;;;;;18.35;9.40;;;0.60;99.90;;;;;;5076748;28;20029;-70
2021/01/13 03:36:56;;;;;;;15.88;9.35;;;0.50;99.90;;;;;;5079164;28;20035;-71
2021/01/13 03:39:23;;;;;;;24.30;10.13;;;0.40;99.90;;;;;;5080486;28;20047;-73
2021/01/13 03:41:55;;;;;;;20.73;9.57;;;0.40;99.90;;;;;;5079863;28;20027;-70
2021/01/13 03:44:26;;;;;;;18.45;10.00;;;0.30;99.90;;;;;;5076703;28;20462;-71
2021/01/13 03:46:54;;;;;;;22.85;11.20;;;0.20;99.90;;;;;;5075398;28;20032;-70
2021/01/13 03:49:26;;;;;;;19.45;9.52;;;0.20;99.90;;;;;;5076039;28;20078;-70
2021/01/13 03:51:58;;;;;;;20.25;10.50;;;0.40;99.90;;;;;;5076006;28;20036;-70
2021/01/13 03:54:27;;;;;;;20.70;10.43;;;0.30;99.90;;;;;;5074895;28;20025;-71
2021/01/13 03:57:02;;;;;;;20.88;10.55;;;0.40;99.90;;;;;;5075242;28;20028;-70
2021/01/13 04:00:03;;;;;;;19.70;10.13;;;0.50;99.90;;;;;;5067751;28;20544;-70
2021/01/13 04:02:36;;;;;;;20.40;10.45;;;0.50;99.90;;;;;;5046916;28;20040;-71
2021/01/13 04:05:27;;;;;;;20.15;10.30;;;0.50;99.90;;;;;;5057249;28;20048;-72
2021/01/13 04:07:55;;;;;;;18.95;9.80;;;0.60;99.90;;;;;;5039917;28;20025;-71
2021/01/13 04:10:21;;;;;;;16.13;9.27;;;0.60;99.90;;;;;;5041383;28;20025;-69
2021/01/13 04:13:05;;;;;;;22.10;9.95;;;0.70;99.90;;;;;;5058345;28;20159;-70
2021/01/13 04:15:38;;;;;;;17.48;9.27;;;0.70;99.90;;;;;;5060384;28;20025;-71
2021/01/13 04:18:09;;;;;;;14.45;8.55;;;0.80;99.90;;;;;;5057697;28;20025;-72
2021/01/13 04:20:36;;;;;;;15.18;8.27;;;0.90;99.90;;;;;;5040627;28;20041;-72
2021/01/13 04:23:06;;;;;;;18.58;8.60;;;0.90;99.90;;;;;;5050708;28;20044;-71
2021/01/13 04:25:33;;;;;;;18.27;8.45;;;0.90;99.90;;;;;;5041172;28;20025;-71
2021/01/13 04:28:00;;;;;;;16.65;8.25;;;0.90;99.90;;;;;;5073425;28;20029;-72
2021/01/13 04:30:26;;;;;;;21.88;8.18;;;0.90;99.90;;;;;;5078621;28;20034;-69
2021/01/13 04:33:01;;;;;;;13.10;8.25;;;1.00;99.90;;;;;;5073792;28;20032;-72
2021/01/13 04:35:27;;;;;;;15.45;8.18;;;1.00;99.90;;;;;;5075828;28;20029;-71
2021/01/13 04:37:57;;;;;;;17.27;8.75;;;0.90;99.90;;;;;;5073954;28;20055;-70
2021/01/13 04:40:23;;;;;;;16.30;8.43;;;0.90;99.90;;;;;;5073529;28;20032;-69
2021/01/13 04:43:12;;;;;;;14.10;7.47;;;0.90;99.90;;;;;;5072796;28;20025;-69
2021/01/13 04:45:39;;;;;;;15.57;8.07;;;0.90;99.90;;;;;;5072260;28;20020;-72
2021/01/13 04:48:10;;;;;;;14.32;8.98;;;0.90;99.90;;;;;;5073019;28;20028;-71
2021/01/13 04:50:38;;;;;;;13.50;8.20;;;1.00;99.90;;;;;;5055474;28;20039;-70
2021/01/13 04:53:12;;;;;;;12.77;8.00;;;1.00;99.90;;;;;;5072835;28;20487;-71
2021/01/13 04:55:47;;;;;;;16.23;8.95;;;1.00;99.90;;;;;;5073107;28;20375;-71
2021/01/13 04:58:43;;;;;;;15.13;8.35;;;1.00;99.90;;;;;;5073198;28;20024;-70
2021/01/13 05:02:03;;;;;;;16.50;9.32;;;1.00;99.90;;;;;;5073094;28;20025;-73
2021/01/13 05:04:53;;;;;;;14.32;8.75;;;1.00;99.90;;;;;;5072402;28;20012;-71
2021/01/13 05:07:18;;;;;;;13.10;7.43;;;1.00;99.90;;;;;;5055136;28;20111;-71
2021/01/13 05:09:51;;;;;;;17.90;8.52;;;1.00;99.90;;;;;;5056143;28;20044;-71
2021/01/13 05:12:17;;;;;;;13.65;8.30;;;0.90;99.90;;;;;;5073543;28;20056;-71
2021/01/13 05:14:45;;;;;;;10.40;7.32;;;1.00;99.90;;;;;;5072551;28;20039;-70
2021/01/13 05:17:33;;;;;;;14.32;7.70;;;1.00;99.90;;;;;;5063992;22;20041;-68
2021/01/13 05:20:17;;;;;;;15.23;7.28;;;1.00;99.90;;;;;;5067853;28;20035;-66
2021/01/13 05:22:44;;;;;;;10.45;7.97;;;1.10;99.90;;;;;;5071738;28;20497;-66
2021/01/13 05:25:10;;;;;;;13.23;6.95;;;1.10;99.90;;;;;;5072136;28;20032;-66
2021/01/13 05:27:45;;;;;;;11.88;7.05;;;1.10;99.90;;;;;;5054904;28;20021;-65
2021/01/13 05:30:11;;;;;;;11.43;6.97;;;1.20;99.90;;;;;;5052442;28;20025;-66
2021/01/13 05:32:40;;;;;;;11.82;7.03;;;1.10;99.90;;;;;;5051392;28;20044;-66
2021/01/13 05:35:07;;;;;;;14.45;6.95;;;1.10;99.90;;;;;;5051912;28;20055;-67
2021/01/13 05:38:02;;;;;;;11.77;6.95;;;1.10;99.90;;;;;;5052356;28;20040;-65
2021/01/13 05:40:28;;;;;;;11.00;6.57;;;1.20;99.90;;;;;;5001151;28;20578;-66
2021/01/13 05:42:56;;;;;;;12.68;7.38;;;1.20;99.90;;;;;;5038657;28;20040;-67
2021/01/13 05:45:24;;;;;;;16.60;7.22;;;1.10;99.90;;;;;;5050948;28;20133;-68
2021/01/13 05:47:56;;;;;;;14.82;7.20;;;1.10;99.90;;;;;;5051180;28;20115;-67
2021/01/13 05:50:23;;;;;;;15.20;7.93;;;1.10;99.90;;;;;;5051978;28;20025;-67
2021/01/13 05:52:54;;;;;;;17.13;7.88;;;1.20;99.90;;;;;;5050730;28;20040;-66
2021/01/13 05:55:21;;;;;;;16.92;7.57;;;1.10;99.90;;;;;;5051694;28;20067;-67
2021/01/13 05:58:00;;;;;;;18.85;8.65;;;1.20;99.90;;;;;;5051628;28;20024;-67
2021/01/13 06:00:28;;;;;;;12.18;7.80;;;1.30;99.90;;;;;;5050770;28;20035;-67
2021/01/13 06:03:04;;;;;;;13.98;7.50;;;1.30;99.90;;;;;;5050424;28;20504;-68
2021/01/13 06:05:32;;;;;;;13.73;7.90;;;1.40;99.90;;;;;;5051444;28;20033;-65
2021/01/13 06:08:03;;;;;;;17.17;7.78;;;1.30;99.90;;;;;;5051189;28;20082;-67
2021/01/13 06:10:38;;;;;;;12.23;7.13;;;1.30;99.90;;;;;;5050618;28;20032;-66
2021/01/13 06:13:05;;;;;;;13.40;7.50;;;1.30;99.90;;;;;;5049992;28;20559;-65
2021/01/13 06:15:32;;;;;;;13.48;7.50;;;1.40;99.90;;;;;;5051033;28;20032;-66
2021/01/13 06:17:59;;;;;;;14.38;8.00;;;1.40;99.90;;;;;;5051151;28;20395;-65
2021/01/13 06:20:27;;;;;;;11.68;7.93;;;1.40;99.90;;;;;;5051151;28;20031;-66
2021/01/13 06:22:54;;;;;;;13.25;8.23;;;1.50;99.90;;;;;;5050170;28;20017;-66
2021/01/13 06:25:24;;;;;;;16.05;8.73;;;1.50;99.90;;;;;;5050656;28;20032;-66
2021/01/13 06:28:25;;;;;;;13.82;8.95;;;1.50;99.90;;;;;;5051055;28;20475;-65
2021/01/13 06:31:07;;;;;;;11.70;8.43;;;1.60;99.90;;;;;;4969917;28;20023;-65
2021/01/13 06:34:11;;;;;;;18.48;9.30;;;1.60;99.90;;;;;;5023884;28;20065;-70
2021/01/13 06:36:52;;;;;;;20.30;8.75;;;1.80;99.90;;;;;;5035459;28;20012;-68
2021/01/13 06:39:18;;;;;;;15.13;9.37;;;2.00;99.90;;;;;;5051776;28;20074;-71
2021/01/13 06:41:48;;;;;;;14.55;9.90;;;2.50;99.90;;;;;;5032853;28;20811;-64
2021/01/13 06:44:19;;;;;;;16.73;9.63;;;2.30;99.90;;;;;;5049880;28;20021;-64
2021/01/13 06:46:44;;;;;;;15.25;9.05;;;2.20;99.90;;;;;;5050595;28;20478;-64
2021/01/13 06:49:14;;;;;;;12.00;7.72;;;2.10;99.90;;;;;;5050250;28;20083;-67
2021/01/13 06:51:51;;;;;;;14.25;8.18;;;1.90;99.90;;;;;;5050876;28;20527;-66
2021/01/13 06:54:21;;;;;;;14.30;8.57;;;1.80;99.90;;;;;;5031926;28;20025;-67
2021/01/13 06:56:54;;;;;;;16.05;8.43;;;1.70;99.90;;;;;;5051317;28;20025;-65
2021/01/13 06:59:22;;;;;;;11.45;8.63;;;1.60;99.90;;;;;;5050659;28;20362;-67
2021/01/13 07:01:58;;;;;;;18.95;8.73;;;1.60;99.90;;;;;;5050429;28;20055;-66
2021/01/13 07:04:26;;;;;;;13.50;7.95;;;1.50;99.90;;;;;;5049743;28;20025;-66
2021/01/13 07:07:02;;;;;;;14.98;9.23;;;1.60;99.90;;;;;;5050617;28;20025;-67
2021/01/13 07:09:44;;;;;;;12.88;8.02;;;1.60;99.90;;;;;;5053468;28;20025;-67
2021/01/13 07:12:10;;;;;;;;;;;1.60;99.90;;;;;;5055031;28;20094;-67
2021/01/13 07:14:37;;;;;;;12.15;8.02;;;1.50;99.90;;;;;;5053673;28;20362;-67
2021/01/13 07:17:06;;;;;;;19.15;8.45;;;1.60;99.90;;;;;;5053878;28;20044;-66
2021/01/13 07:19:34;;;;;;;16.10;8.48;;;1.60;99.90;;;;;;5054349;28;20057;-65
2021/01/13 07:22:00;;;;;;;15.48;7.88;;;1.60;99.90;;;;;;5048943;28;20028;-65
2021/01/13 07:24:28;;;;;;;12.82;7.97;;;1.60;99.90;;;;;;5040868;28;20036;-67
2021/01/13 07:26:57;;;;;;;14.25;7.88;;;1.60;99.90;;;;;;5046866;28;20041;-67
2021/01/13 07:29:25;;;;;;;15.70;7.63;;;1.70;99.90;;;;;;5042015;28;20025;-67
2021/01/13 07:31:54;;;;;;;11.40;7.68;;;1.70;99.90;;;;;;5047296;28;20045;-67
2021/01/13 07:34:50;;;;;;;10.90;7.65;;;1.80;99.90;;;;;;5033451;28;20100;-68
2021/01/13 07:37:24;;;;;;;13.18;7.95;;;1.80;99.90;;;;;;5032679;28;20049;-66
2021/01/13 07:39:58;;;;;;;11.05;7.43;;;1.80;99.90;;;;;;5034299;28;20057;-67
2021/01/13 07:42:37;;;;;;;10.25;6.35;;;1.80;99.90;;;;;;5034221;28;20025;-66
2021/01/13 07:45:16;;;;;;;9.88;6.32;;;1.80;99.90;;;;;;5047449;28;20052;-66
2021/01/13 07:48:01;;;;;;;12.00;7.03;;;1.80;99.90;;;;;;5053708;28;20021;-68
2021/01/13 07:50:29;;;;;;;10.95;6.10;;;1.80;99.90;;;;;;5053873;28;20036;-68
2021/01/13 07:53:03;;;;;;;13.52;7.05;;;1.80;99.90;;;;;;5053139;28;20340;-67
2021/01/13 07:55:31;;;;;;;11.68;7.38;;;1.80;99.90;;;;;;5053410;28;20035;-67
2021/01/13 07:58:03;;;;;;;12.57;7.25;;;1.70;99.90;;;;;;5053766;28;20715;-69
2021/01/13 08:00:39;;;;;;;12.55;7.70;;;1.80;99.90;;;;;;5052853;28;20481;-67
2021/01/13 08:03:39;;;;;;;13.13;6.88;;;1.90;99.90;;;;;;5052362;28;20021;-67
2021/01/13 08:06:28;;;;;;;10.23;6.43;;;1.90;99.90;;;;;;5053471;28;20025;-68
2021/01/13 08:09:47;;;;;;;14.68;6.60;;;2.00;99.90;;;;;;5053789;28;20037;-67
2021/01/13 08:12:43;;;;;;;14.98;6.35;;;2.20;99.90;;;;;;4972504;28;20038;-67
2021/01/13 08:15:48;;;;;;;16.45;6.88;;;2.20;99.90;;;;;;4972394;28;20027;-68
2021/01/13 08:18:48;;;;;;;12.40;6.80;;;2.30;99.90;;;;;;5053375;28;20486;-67
2021/01/13 08:21:37;;;;;;;17.52;6.95;;;2.40;99.90;;;;;;5053418;28;20489;-68
2021/01/13 08:24:14;;;;;;;12.90;6.28;;;2.40;99.90;;;;;;5052819;28;20025;-67
2021/01/13 08:26:41;;;;;;;7.53;6.03;;;2.60;99.90;;;;;;5051457;28;20052;-67
2021/01/13 08:29:17;;;;;;;8.63;5.40;;;2.60;99.90;;;;;;5037623;28;20048;-68
2021/01/13 08:31:48;;;;;;;9.48;5.07;;;2.60;99.90;;;;;;5033164;28;20021;-69
2021/01/13 08:34:14;;;;;;;11.23;6.20;;;2.70;99.90;;;;;;5037527;28;20025;-68
2021/01/13 08:36:54;;;;;;;11.68;6.35;;;3.00;99.90;;;;;;5043871;28;20033;-68
2021/01/13 08:39:30;;;;;;;15.10;9.27;;;3.00;99.90;;;;;;5043058;28;20033;-67
2021/01/13 08:42:26;;;;;;;16.48;8.73;;;3.00;99.90;;;;;;5047036;28;20020;-67
2021/01/13 08:44:56;;;;;;;14.00;9.85;;;3.10;99.90;;;;;;5046842;28;20471;-67
2021/01/13 08:47:24;;;;;;;18.40;10.57;;;3.20;99.90;;;;;;5050499;28;20024;-67
2021/01/13 08:49:50;;;;;;;12.00;7.15;;;3.30;99.90;;;;;;5044779;28;20017;-68
2021/01/13 08:52:50;;;;;;;12.05;5.57;;;3.40;99.90;;;;;;5044618;28;20029;-68
2021/01/13 08:55:17;;;;;;;13.70;5.85;;;3.70;99.90;;;;;;5052456;28;20029;-68
2021/01/13 08:58:02;;;;;;;16.42;9.70;;;4.30;99.90;;;;;;5052629;28;20020;-68
2021/01/13 09:00:28;;;;;;;53.97;34.13;;;4.90;99.90;;;;;;5052439;28;20025;-68
2021/01/13 09:02:59;;;;;;;55.03;30.60;;;5.10;99.90;;;;;;5052311;28;20033;-69
2021/01/13 09:05:40;;;;;;;14.87;8.30;;;5.20;99.90;;;;;;5052737;28;20057;-68
2021/01/13 09:08:09;;;;;;;12.88;6.03;;;5.40;99.90;;;;;;5052790;28;20446;-68
2021/01/13 09:10:48;;;;;;;9.57;4.18;;;6.10;99.90;;;;;;5060897;28;20036;-68
2021/01/13 09:13:33;;;;;;;10.90;4.72;;;7.00;99.90;;;;;;5052132;28;20049;-67
2021/01/13 09:16:24;;;;;;;12.73;4.40;;;6.80;99.90;;;;;;5052123;28;20035;-67
2021/01/13 09:18:58;;;;;;;8.43;3.70;;;6.20;99.90;;;;;;5052039;28;20190;-68
2021/01/13 09:21:32;;;;;;;7.85;4.03;;;5.90;99.90;;;;;;5052252;28;20048;-69
2021/01/13 09:23:59;;;;;;;9.10;5.05;;;5.50;99.90;;;;;;5052544;28;20029;-68
2021/01/13 09:26:35;;;;;;;14.27;6.60;;;5.30;99.90;;;;;;5053079;28;20104;-69
2021/01/13 09:29:10;;;;;;;8.52;4.18;;;5.20;99.90;;;;;;5052822;28;20024;-68
2021/01/13 09:31:39;;;;;;;8.20;4.05;;;4.80;99.90;;;;;;5051906;28;20028;-68
2021/01/13 09:34:06;;;;;;;7.30;3.67;;;4.60;99.90;;;;;;5051293;28;20032;-68
2021/01/13 09:36:56;;;;;;;15.48;5.20;;;4.50;99.90;;;;;;5052187;28;20029;-71
2021/01/13 09:39:32;;;;;;;8.15;4.55;;;4.50;99.90;;;;;;5052398;28;20025;-69
2021/01/13 09:42:00;;;;;;;10.85;4.43;;;4.30;99.90;;;;;;5052148;28;20105;-68
2021/01/13 09:44:30;;;;;;;11.52;4.82;;;4.10;99.90;;;;;;5051443;28;20053;-70
2021/01/13 09:46:56;;;;;;;11.02;4.80;;;3.80;99.90;;;;;;5051835;28;20364;-69
2021/01/13 09:49:22;;;;;;;10.98;4.85;;;3.90;99.90;;;;;;5051844;28;20423;-68
2021/01/13 09:51:48;;;;;;;12.38;5.10;;;3.70;99.90;;;;;;5051708;28;20166;-68
2021/01/13 09:54:20;;;;;;;13.05;5.15;;;3.70;99.90;;;;;;5051259;28;20021;-69
2021/01/13 09:56:51;;;;;;;7.25;4.47;;;3.60;99.90;;;;;;5034107;28;20025;-69
2021/01/13 09:59:17;;;;;;;11.27;5.05;;;3.60;99.90;;;;;;5051683;28;20024;-67
2021/01/13 10:01:44;;;;;;;15.95;6.25;;;3.70;99.90;;;;;;5051287;28;20490;-67
2021/01/13 10:04:12;;;;;;;9.02;4.40;;;3.80;99.90;;;;;;5050472;28;20052;-70
2021/01/13 10:06:42;;;;;;;12.95;8.00;;;3.90;99.90;;;;;;5051267;28;20379;-67
2021/01/13 10:09:14;;;;;;;15.98;9.05;;;3.90;99.90;;;;;;5051436;28;20544;-67
2021/01/13 10:11:40;;;;;;;15.55;8.52;;;4.00;99.90;;;;;;5051788;28;20377;-69
2021/01/13 10:14:08;;;;;;;8.50;5.70;;;4.10;99.90;;;;;;5050763;28;20040;-68
2021/01/13 10:16:43;;;;;;;20.63;11.23;;;4.30;99.90;;;;;;5051324;28;20060;-69
2021/01/13 10:19:10;;;;;;;10.40;5.22;;;4.40;99.90;;;;;;5051580;28;20021;-68
2021/01/13 10:21:40;;;;;;;9.88;4.13;;;4.30;99.90;;;;;;5051694;28;20044;-70
2021/01/13 10:24:07;;;;;;;6.68;3.85;;;4.40;99.90;;;;;;5051095;28;20044;-69
2021/01/13 10:26:36;;;;;;;10.50;4.65;;;4.50;99.90;;;;;;5051788;28;20485;-70
2021/01/13 10:29:03;;;;;;;11.07;5.10;;;4.80;99.90;;;;;;5048142;28;20033;-69
2021/01/13 10:31:29;;;;;;;8.30;3.97;;;5.40;99.90;;;;;;5031811;28;20522;-69
2021/01/13 10:33:56;;;;;;;8.43;3.60;;;5.60;99.90;;;;;;5030955;28;20029;-67
2021/01/13 10:36:37;;;;;;;8.80;3.72;;;6.50;99.90;;;;;;5031389;28;20101;-69
2021/01/13 10:39:34;;;;;;;9.93;3.35;;;7.60;99.90;;;;;;5031418;28;20029;-69
2021/01/13 10:42:06;;;;;;;9.43;3.63;;;7.80;99.90;;;;;;5028800;28;20452;-68
2021/01/13 10:44:33;;;;;;;6.43;3.60;;;7.50;99.90;;;;;;5034173;28;20025;-69
2021/01/13 10:47:07;;;;;;;8.45;3.58;;;7.30;99.90;;;;;;5036044;28;20503;-68
2021/01/13 10:49:46;;;;;;;9.40;3.72;;;6.70;99.90;;;;;;5018025;28;20156;-69
2021/01/13 10:52:12;;;;;;;9.38;3.22;;;7.10;99.90;;;;;;5036050;28;20025;-71
2021/01/13 10:54:43;;;;;;;8.05;4.15;;;6.80;99.90;;;;;;5017676;28;20119;-70
2021/01/13 10:57:10;;;;;;;8.85;3.45;;;6.20;99.90;;;;;;5035973;28;20071;-70
2021/01/13 10:59:38;;;;;;;5.80;2.70;;;7.80;99.90;;;;;;5043578;28;20111;-71
2021/01/13 11:02:12;;;;;;;9.07;2.70;;;9.00;99.90;;;;;;5055633;28;20025;-69
2021/01/13 11:04:45;;;;;;;9.15;3.35;;;9.10;99.90;;;;;;5054817;28;20033;-69
2021/01/13 11:07:16;;;;;;;4.82;2.00;;;8.10;99.90;;;;;;5055396;28;20075;-68
2021/01/13 11:09:47;;;;;;;6.53;2.72;;;8.00;99.90;;;;;;5055246;28;20100;-68
2021/01/13 11:12:20;;;;;;;7.82;2.75;;;7.40;99.90;;;;;;5055462;28;20467;-68
2021/01/13 11:14:49;;;;;;;6.00;2.30;;;7.00;99.90;;;;;;5036288;28;20029;-70
2021/01/13 11:17:26;;;;;;;5.43;2.97;;;6.80;99.90;;;;;;5054762;28;20036;-69
2021/01/13 11:19:51;;;;;;;4.72;2.60;;;6.60;99.90;;;;;;5055147;28;20360;-69
2021/01/13 11:22:18;;;;;;;8.85;2.80;;;6.90;99.90;;;;;;5055006;28;20083;-72
2021/01/13 11:24:45;;;;;;;5.97;2.35;;;6.40;99.90;;;;;;5054662;28;20021;-70
2021/01/13 11:27:19;;;;;;;8.65;3.35;;;6.50;99.90;;;;;;5054904;28;20017;-70
2021/01/13 11:29:53;;;;;;;5.65;2.33;;;6.60;99.90;;;;;;5046516;28;20025;-70
2021/01/13 11:32:25;;;;;;;5.60;2.08;;;6.70;99.90;;;;;;5035272;28;20033;-71
2021/01/13 11:34:55;;;;;;;6.28;2.20;;;6.90;99.90;;;;;;5035160;28;20127;-70
2021/01/13 11:37:26;;;;;;;16.35;3.20;;;6.90;99.90;;;;;;5035382;28;20033;-70
2021/01/13 11:40:32;;;;;;;9.23;2.70;;;7.50;99.90;;;;;;5035078;28;20543;-70
2021/01/13 11:43:43;;;;;;;6.57;2.88;;;6.70;99.90;;;;;;5034348;28;20136;-71
2021/01/13 11:46:15;;;;;;;6.28;2.20;;;7.10;99.90;;;;;;5033985;28;20100;-70
2021/01/13 11:49:03;;;;;;;9.27;2.53;;;7.90;99.90;;;;;;5033593;28;20103;-69
2021/01/13 11:51:32;;;;;;;8.88;2.33;;;8.60;99.90;;;;;;5034031;28;20013;-69
2021/01/13 11:53:59;;;;;;;4.13;2.15;;;9.00;99.90;;;;;;5032964;28;20021;-70
2021/01/13 11:56:30;;;;;;;6.07;2.72;;;8.00;99.90;;;;;;5033960;28;20500;-69
2021/01/13 11:58:56;;;;;;;7.97;2.15;;;6.90;99.90;;;;;;5035991;28;20041;-69
2021/01/13 12:01:25;;;;;;;4.75;2.40;;;6.50;99.90;;;;;;5053610;28;20032;-69
2021/01/13 12:04:17;;;;;;;4.60;2.00;;;5.70;99.90;;;;;;5053216;28;20021;-70
2021/01/13 12:06:58;;;;;;;5.63;2.58;;;5.40;99.90;;;;;;5030702;28;20042;-69
2021/01/13 12:09:24;;;;;;;8.18;1.95;;;5.10;99.90;;;;;;5037491;28;20391;-69
2021/01/13 12:11:50;;;;;;;6.47;2.20;;;4.90;99.90;;;;;;5033936;28;20028;-69
2021/01/13 12:14:16;;;;;;;5.70;2.33;;;4.70;99.90;;;;;;5033438;28;20423;-69
2021/01/13 12:16:42;;;;;;;3.25;2.00;;;4.80;99.90;;;;;;5033585;28;20498;-72
2021/01/13 12:19:07;;;;;;;5.28;2.53;;;4.90;99.90;;;;;;5033369;28;20088;-69
2021/01/13 12:21:34;;;;;;;4.38;2.20;;;5.20;99.90;;;;;;5033733;28;20075;-70
2021/01/13 12:24:16;;;;;;;8.05;2.35;;;5.10;99.90;;;;;;5033550;28;20526;-69
2021/01/13 12:26:42;;;;;;;6.73;3.00;;;5.20;99.90;;;;;;5033545;28;20025;-70
2021/01/13 12:29:08;;;;;;;6.03;2.75;;;5.30;99.90;;;;;;5033510;28;20279;-69
2021/01/13 12:31:37;;;;;;;15.18;5.95;;;5.40;99.90;;;;;;5034135;28;20029;-69
2021/01/13 12:34:09;;;;;;;6.80;2.80;;;5.60;99.90;;;;;;5033358;28;20108;-70
2021/01/13 12:36:39;;;;;;;;;;;5.80;99.90;;;;;;5053890;28;20143;-67
2021/01/13 12:39:06;;;;;;;7.60;2.10;;;5.80;99.90;;;;;;5053100;28;19912;-67
2021/01/13 12:41:37;;;;;;;6.93;2.25;;;5.90;99.90;;;;;;5053228;28;20025;-68
2021/01/13 12:44:09;;;;;;;7.32;2.00;;;6.80;99.90;;;;;;5052536;28;20024;-68
2021/01/13 12:46:51;;;;;;;3.90;1.45;;;7.30;99.90;;;;;;5052889;28;20366;-68
2021/01/13 12:49:16;;;;;;;3.73;1.50;;;7.10;99.90;;;;;;5052923;28;20033;-68
2021/01/13 12:51:42;;;;;;;3.53;1.55;;;6.70;99.90;;;;;;5052961;28;20449;-67
2021/01/13 12:54:08;;;;;;;5.50;1.50;;;6.40;99.90;;;;;;5052286;28;20033;-66
2021/01/13 12:56:34;;;;;;;5.68;1.60;;;6.10;99.90;;;;;;5052480;28;20068;-67
2021/01/13 12:59:01;;;;;;;4.28;1.45;;;5.80;99.90;;;;;;5052680;28;20057;-68
2021/01/13 13:01:27;;;;;;;5.75;1.40;;;5.60;99.90;;;;;;5052767;28;20017;-67
2021/01/13 13:03:57;;;;;;;5.22;1.65;;;5.70;99.90;;;;;;5051907;28;20055;-67
2021/01/13 13:06:30;;;;;;;6.13;1.40;;;5.80;99.90;;;;;;5051520;28;20017;-65
2021/01/13 13:08:57;;;;;;;3.55;1.35;;;6.30;99.90;;;;;;5052523;28;20390;-67
2021/01/13 13:11:30;;;;;;;6.32;1.45;;;8.60;99.90;;;;;;5036596;28;20029;-68
2021/01/13 13:13:57;;;;;;;2.58;1.75;;;9.90;99.90;;;;;;5031850;28;20021;-67
2021/01/13 13:16:24;;;;;;;6.38;1.75;;;10.20;99.90;;;;;;5031810;28;20064;-68
2021/01/13 13:18:52;;;;;;;5.30;1.83;;;10.40;98.30;;;;;;5032140;28;20022;-67